createdAt,value
2023-05-11T05:03:21.212Z,47.82
2023-05-11T05:04:21.298Z,46.50
2023-05-11T05:05:21.130Z,46.32
2023-05-11T05:06:22.127Z,46.20
2023-05-11T05:07:21.112Z,46.09
2023-05-11T05:08:21.090Z,46.04
2023-05-11T05:09:22.101Z,46.03
2023-05-11T05:10:22.057Z,45.97
2023-05-11T05:11:21.065Z,45.92
2023-05-11T05:12:22.063Z,45.92
2023-05-11T05:13:21.055Z,45.90
2023-05-11T05:14:22.040Z,45.86
2023-05-11T05:15:22.053Z,45.82
2023-05-11T05:16:21.052Z,45.83
2023-05-11T05:17:22.020Z,45.82
2023-05-11T05:18:21.057Z,45.82
2023-05-11T05:19:21.031Z,45.81
2023-05-11T05:20:22.000Z,45.79
2023-05-11T05:21:22.016Z,45.75
2023-05-11T05:22:21.988Z,45.74
2023-05-11T05:23:20.992Z,45.76
2023-05-11T05:24:21.033Z,45.84
2023-05-11T05:25:21.068Z,45.85
2023-05-11T05:26:21.131Z,45.84
2023-05-11T05:27:21.147Z,45.83
2023-05-11T05:28:22.175Z,45.86
2023-05-11T05:29:21.253Z,46.11
2023-05-11T05:30:22.271Z,46.27
2023-05-11T05:31:22.356Z,46.34
2023-05-11T05:32:21.362Z,46.83
2023-05-11T05:33:22.397Z,46.70
2023-05-11T05:34:22.426Z,47.03
2023-05-11T05:35:21.501Z,47.43
2023-05-11T05:36:22.527Z,47.55
2023-05-11T05:37:22.579Z,47.60
2023-05-11T05:38:22.632Z,47.67
2023-05-11T05:39:21.704Z,47.67
2023-05-11T05:40:22.758Z,48.24
2023-05-11T05:41:22.763Z,48.39
2023-05-11T05:42:22.730Z,48.37
2023-05-11T05:43:21.767Z,48.36
2023-05-11T05:44:22.790Z,48.33
2023-05-11T05:45:21.790Z,48.45
2023-05-11T05:46:22.862Z,48.16
2023-05-11T05:47:21.896Z,48.46
2023-05-11T05:48:22.887Z,48.27
2023-05-11T05:49:22.924Z,48.22
2023-05-11T05:50:21.985Z,48.31
2023-05-11T05:51:23.031Z,48.38
2023-05-11T05:52:23.047Z,47.05
2023-05-11T05:53:23.100Z,46.29
2023-05-11T05:54:23.162Z,46.02
2023-05-11T05:55:22.270Z,45.71
2023-05-11T05:56:23.399Z,45.20
2023-05-11T05:57:23.277Z,45.30
2023-05-11T05:58:23.293Z,45.02
2023-05-11T05:59:23.416Z,44.85
2023-05-11T06:00:22.331Z,44.82
2023-05-11T06:01:22.357Z,44.92
2023-05-11T06:02:23.420Z,44.89
2023-05-11T06:03:22.518Z,45.33
2023-05-11T06:04:22.483Z,45.51
2023-05-11T06:05:22.485Z,45.58
2023-05-11T06:06:22.532Z,45.49
2023-05-11T06:07:22.550Z,45.62
2023-05-11T06:08:22.563Z,45.15
2023-05-11T06:09:22.664Z,45.87
2023-05-11T06:10:23.687Z,43.94
2023-05-11T06:11:23.679Z,43.00
2023-05-11T06:12:22.709Z,43.76
2023-05-11T06:13:22.850Z,43.81
2023-05-11T06:14:22.735Z,43.37
2023-05-11T06:15:23.783Z,43.12
2023-05-11T06:16:24.142Z,43.67
2023-05-11T06:17:23.939Z,43.27
2023-05-11T06:18:23.984Z,43.24
2023-05-11T06:19:23.934Z,42.62
2023-05-11T06:20:23.014Z,44.31
2023-05-11T06:21:24.079Z,43.16
2023-05-11T06:22:23.136Z,42.35
2023-05-11T06:23:23.144Z,42.51
2023-05-11T06:24:24.173Z,42.34
2023-05-11T06:25:23.190Z,41.20
2023-05-11T06:26:23.245Z,40.34
2023-05-11T06:27:24.216Z,40.43
2023-05-11T06:28:24.260Z,41.17
2023-05-11T06:29:23.264Z,41.08
2023-05-11T06:30:23.322Z,41.34
2023-05-11T06:31:24.382Z,40.98
2023-05-11T06:32:24.336Z,40.57
2023-05-11T06:33:24.352Z,40.45
2023-05-11T06:34:23.366Z,40.19
2023-05-11T06:35:24.418Z,40.24
2023-05-11T06:36:24.447Z,40.73
2023-05-11T06:37:23.501Z,40.67
2023-05-11T06:38:24.514Z,40.97
2023-05-11T06:39:24.520Z,41.10
2023-05-11T06:40:24.552Z,40.75
2023-05-11T06:41:24.607Z,40.66
2023-05-11T06:42:23.735Z,40.98
2023-05-11T06:43:23.660Z,40.62
2023-05-11T06:44:24.745Z,41.37
2023-05-11T06:45:23.790Z,41.18
2023-05-11T06:46:24.908Z,41.59
2023-05-11T06:47:23.839Z,41.79
2023-05-11T06:48:24.813Z,41.82
2023-05-11T06:49:24.859Z,41.86
2023-05-11T06:50:26.661Z,41.96
2023-05-11T06:51:23.955Z,42.65
2023-05-11T06:52:24.869Z,42.24
2023-05-11T06:53:24.953Z,41.92
2023-05-11T06:54:25.047Z,41.51
2023-05-11T06:55:24.894Z,41.08
2023-05-11T06:56:23.872Z,40.98
2023-05-11T06:57:25.080Z,40.89
2023-05-11T06:58:24.850Z,40.93
2023-05-11T06:59:24.887Z,40.85
2023-05-11T07:00:24.828Z,40.94
2023-05-11T07:01:24.868Z,40.95
2023-05-11T07:02:24.818Z,40.91
2023-05-11T07:03:24.815Z,40.86
2023-05-11T07:04:23.894Z,40.85
2023-05-11T07:05:24.797Z,40.87
2023-05-11T07:06:23.778Z,40.87
2023-05-11T07:07:24.835Z,40.87
2023-05-11T07:08:24.772Z,40.74
2023-05-11T07:09:23.761Z,40.82
2023-05-11T07:10:24.788Z,40.80
2023-05-11T07:11:24.742Z,40.82
2023-05-11T07:12:23.740Z,40.82
2023-05-11T07:13:23.747Z,40.84
2023-05-11T07:14:24.748Z,40.86
2023-05-11T07:15:24.720Z,40.81
2023-05-11T07:16:24.849Z,40.85
2023-05-11T07:17:23.751Z,40.81
2023-05-11T07:18:23.752Z,40.87
2023-05-11T07:19:23.710Z,40.88
2023-05-11T07:20:23.703Z,40.90
2023-05-11T07:21:25.115Z,40.95
2023-05-11T07:22:23.703Z,40.93
2023-05-11T07:23:24.649Z,40.93
2023-05-11T07:24:23.693Z,40.97
2023-05-11T07:25:24.651Z,40.99
2023-05-11T07:26:25.170Z,40.97
2023-05-11T07:27:23.677Z,41.01
2023-05-11T07:28:23.660Z,40.98
2023-05-11T07:29:23.632Z,41.06
2023-05-11T07:30:23.853Z,41.06
2023-05-11T07:31:24.674Z,41.09
2023-05-11T07:32:23.703Z,41.06
2023-05-11T07:33:24.611Z,41.05
2023-05-11T07:34:23.574Z,41.08
2023-05-11T07:35:24.616Z,41.09
2023-05-11T07:36:24.596Z,41.09
2023-05-11T07:37:24.643Z,41.09
2023-05-11T07:38:24.553Z,41.08
2023-05-11T07:39:24.565Z,41.07
2023-05-11T07:40:24.570Z,41.06
2023-05-11T07:41:23.534Z,41.06
2023-05-11T07:42:24.590Z,41.04
2023-05-11T07:43:23.544Z,41.10
2023-05-11T07:44:24.529Z,41.10
2023-05-11T07:45:23.552Z,41.11
2023-05-11T07:46:24.408Z,41.13
2023-05-11T07:47:24.598Z,41.13
2023-05-11T07:48:24.475Z,41.16
2023-05-11T07:49:31.504Z,41.44
2023-05-11T07:50:25.059Z,41.79
2023-05-11T07:51:23.481Z,42.12
2023-05-11T07:52:24.606Z,42.15
2023-05-11T07:53:24.463Z,42.23
2023-05-11T07:54:24.469Z,42.41
2023-05-11T07:55:24.435Z,42.62
2023-05-11T07:56:23.452Z,42.65
2023-05-11T07:57:23.430Z,42.72
2023-05-11T07:58:24.435Z,42.85
2023-05-11T07:59:24.403Z,42.99
2023-05-11T08:00:24.433Z,43.10
2023-05-11T08:01:24.395Z,43.45
2023-05-11T08:02:23.446Z,43.48
2023-05-11T08:03:24.445Z,43.94
2023-05-11T08:04:24.417Z,43.85
2023-05-11T08:05:23.415Z,43.92
2023-05-11T08:06:24.346Z,43.94
2023-05-11T08:07:24.373Z,44.05
2023-05-11T08:08:23.334Z,44.35
2023-05-11T08:09:24.339Z,44.36
2023-05-11T08:10:24.349Z,44.48
2023-05-11T08:11:24.320Z,44.50
2023-05-11T08:12:24.334Z,44.71
2023-05-11T08:13:25.838Z,44.95
2023-05-11T08:14:23.520Z,45.10
2023-05-11T08:15:24.463Z,45.13
2023-05-11T08:16:24.479Z,45.17
2023-05-11T08:17:24.485Z,45.35
2023-05-11T08:18:24.552Z,45.38
2023-05-11T08:19:24.528Z,45.38
2023-05-11T08:20:23.822Z,45.42
2023-05-11T08:21:24.540Z,45.52
2023-05-11T08:22:23.600Z,45.77
2023-05-11T08:23:23.582Z,46.00
2023-05-11T08:24:24.636Z,46.35
2023-05-11T08:25:24.611Z,45.96
2023-05-11T08:26:23.621Z,46.20
2023-05-11T08:27:23.682Z,46.22
2023-05-11T08:28:23.708Z,45.76
2023-05-11T08:29:24.708Z,46.57
2023-05-11T08:30:23.765Z,46.34
2023-05-11T08:31:23.819Z,46.52
2023-05-11T08:32:24.885Z,46.41
2023-05-11T08:33:37.318Z,46.23
2023-05-11T08:34:25.177Z,46.40
2023-05-11T08:35:24.920Z,46.31
2023-05-11T08:36:24.837Z,46.19
2023-05-11T08:37:24.853Z,46.26
2023-05-11T08:38:24.838Z,46.19
2023-05-11T08:39:38.942Z,46.28
2023-05-11T08:40:24.832Z,46.26
2023-05-11T08:41:23.803Z,46.24
2023-05-11T08:42:25.134Z,46.09
2023-05-11T08:43:24.787Z,47.09
2023-05-11T08:44:23.819Z,46.49
2023-05-11T08:45:23.796Z,46.50
2023-05-11T08:46:23.937Z,45.66
2023-05-11T08:47:24.096Z,45.41
2023-05-11T08:48:24.779Z,45.37
2023-05-11T08:49:24.773Z,45.51
2023-05-11T08:50:24.737Z,45.67
2023-05-11T08:51:24.734Z,45.53
2023-05-11T08:52:24.755Z,45.71
2023-05-11T08:53:24.727Z,45.92
2023-05-11T08:54:24.713Z,46.08
2023-05-11T08:55:24.733Z,46.02
2023-05-11T08:56:24.730Z,46.02
2023-05-11T08:57:25.136Z,45.32
2023-05-11T08:58:24.689Z,42.05
2023-05-11T08:59:24.693Z,44.14
2023-05-11T09:00:24.679Z,44.19
2023-05-11T09:01:24.696Z,42.67
2023-05-11T09:02:23.740Z,40.67
2023-05-11T09:03:24.682Z,38.26
2023-05-11T09:04:24.739Z,38.20
2023-05-11T09:05:24.767Z,38.33
2023-05-11T09:06:24.785Z,39.00
2023-05-11T09:07:23.777Z,38.51
2023-05-11T09:08:24.831Z,38.93
2023-05-11T09:09:24.851Z,38.55
2023-05-11T09:10:24.857Z,38.31
2023-05-11T09:11:24.868Z,38.35
2023-05-11T09:12:24.909Z,38.66
2023-05-11T09:13:23.939Z,38.71
2023-05-11T09:15:23.963Z,38.63
2023-05-11T09:16:36.768Z,38.29
2023-05-11T09:17:24.981Z,38.17
2023-05-11T09:18:25.171Z,38.25
2023-05-11T09:19:25.161Z,38.49
2023-05-11T09:20:23.916Z,38.42
2023-05-11T09:21:24.918Z,38.48
2023-05-11T09:22:23.920Z,38.80
2023-05-11T09:23:25.641Z,38.99
2023-05-11T09:24:23.926Z,39.19
2023-05-11T09:25:24.911Z,39.63
2023-05-11T09:26:24.885Z,40.27
2023-05-11T09:27:23.869Z,40.83
2023-05-11T09:28:25.872Z,40.84
2023-05-11T09:29:23.982Z,40.50
2023-05-11T09:30:24.922Z,40.45
2023-05-11T09:31:23.918Z,40.37
2023-05-11T09:32:24.862Z,40.35
2023-05-11T09:33:24.836Z,40.29
2023-05-11T09:34:24.882Z,40.45
2023-05-11T09:35:24.868Z,40.41
2023-05-11T09:36:23.889Z,40.31
2023-05-11T09:37:23.930Z,40.21
2023-05-11T09:38:24.933Z,40.06
2023-05-11T09:39:35.569Z,40.27
2023-05-11T09:40:33.536Z,40.24
2023-05-11T09:41:24.951Z,40.19
2023-05-11T09:42:24.922Z,40.44
2023-05-11T09:43:24.948Z,40.30
2023-05-11T09:44:23.910Z,40.51
2023-05-11T09:45:23.893Z,40.48
2023-05-11T09:46:23.954Z,40.61
2023-05-11T09:47:24.889Z,40.72
2023-05-11T09:48:25.156Z,41.09
2023-05-11T09:49:24.870Z,41.37
2023-05-11T09:50:26.688Z,41.98
2023-05-11T09:51:24.840Z,42.06
2023-05-11T09:52:24.853Z,41.68
2023-05-11T09:53:26.654Z,41.34
2023-05-11T09:54:24.860Z,41.34
2023-05-11T09:55:24.876Z,41.14
2023-05-11T09:56:24.836Z,41.37
2023-05-11T09:57:24.846Z,41.44
2023-05-11T09:58:23.833Z,41.62
2023-05-11T09:59:26.612Z,41.61
2023-05-11T10:00:24.795Z,41.39
2023-05-11T10:01:24.714Z,39.83
2023-05-11T10:02:24.878Z,38.86
2023-05-11T10:03:24.948Z,39.76
2023-05-11T10:04:24.302Z,40.52
2023-05-11T10:05:24.773Z,40.43
2023-05-11T10:06:24.771Z,41.38
2023-05-11T10:07:24.739Z,41.05
2023-05-11T10:08:24.749Z,39.41
2023-05-11T10:09:23.738Z,39.23
2023-05-11T10:10:23.736Z,38.96
2023-05-11T10:11:26.270Z,40.79
2023-05-11T10:12:24.724Z,41.16
2023-05-11T10:13:24.730Z,41.64
2023-05-11T10:14:24.699Z,41.57
2023-05-11T10:15:23.670Z,41.38
2023-05-11T10:16:24.733Z,41.35
2023-05-11T10:17:24.676Z,41.24
2023-05-11T10:18:23.763Z,41.11
2023-05-11T10:19:24.655Z,41.04
2023-05-11T10:20:24.651Z,40.99
2023-05-11T10:21:23.677Z,40.80
2023-05-11T10:22:24.791Z,40.54
2023-05-11T10:23:23.625Z,40.27
2023-05-11T10:24:24.633Z,40.26
2023-05-11T10:25:23.639Z,40.42
2023-05-11T10:26:24.674Z,40.48
2023-05-11T10:27:23.617Z,40.86
2023-05-11T10:28:24.618Z,41.14
2023-05-11T10:29:24.591Z,41.27
2023-05-11T10:30:23.577Z,41.42
2023-05-11T10:31:24.650Z,41.60
2023-05-11T10:32:23.608Z,41.71
2023-05-11T10:33:24.620Z,41.80
2023-05-11T10:34:24.581Z,41.85
2023-05-11T10:35:24.542Z,42.06
2023-05-11T10:36:24.558Z,42.09
2023-05-11T10:37:23.548Z,42.09
2023-05-11T10:38:24.553Z,42.18
2023-05-11T10:39:24.526Z,42.14
2023-05-11T10:40:24.520Z,42.24
2023-05-11T10:41:24.533Z,42.15
2023-05-11T10:42:24.490Z,41.98
2023-05-11T10:43:23.516Z,41.73
2023-05-11T10:44:24.667Z,41.61
2023-05-11T10:45:23.477Z,41.58
2023-05-11T10:46:24.503Z,41.51
2023-05-11T10:47:23.550Z,41.41
2023-05-11T10:48:24.467Z,41.45
2023-05-11T10:49:24.690Z,41.43
2023-05-11T10:50:24.455Z,41.01
2023-05-11T10:51:24.430Z,40.90
2023-05-11T10:52:24.421Z,40.79
2023-05-11T10:53:24.424Z,40.23
2023-05-11T10:54:23.443Z,39.72
2023-05-11T10:55:24.418Z,39.71
2023-05-11T10:56:24.418Z,39.49
2023-05-11T10:57:24.386Z,39.29
2023-05-11T10:58:23.409Z,39.39
2023-05-11T10:59:23.392Z,39.15
2023-05-11T11:00:24.411Z,39.08
2023-05-11T11:01:23.383Z,39.05
2023-05-11T11:02:23.425Z,38.69
2023-05-11T11:03:23.375Z,38.75
2023-05-11T11:04:24.394Z,38.64
2023-05-11T11:05:23.457Z,38.36
2023-05-11T11:06:23.408Z,38.37
2023-05-11T11:07:24.430Z,38.20
2023-05-11T11:08:23.425Z,38.21
2023-05-11T11:09:24.459Z,37.97
2023-05-11T11:10:23.491Z,37.76
2023-05-11T11:11:23.525Z,37.60
2023-05-11T11:12:23.511Z,37.50
2023-05-11T11:13:24.559Z,37.28
2023-05-11T11:14:23.559Z,37.43
2023-05-11T11:15:24.652Z,37.18
2023-05-11T11:16:23.679Z,37.19
2023-05-11T11:17:23.687Z,37.04
2023-05-11T11:18:24.793Z,37.09
2023-05-11T11:19:24.730Z,36.89
2023-05-11T11:20:23.777Z,36.77
2023-05-11T11:21:26.159Z,36.68
2023-05-11T11:22:24.698Z,36.59
2023-05-11T11:23:24.930Z,36.45
2023-05-11T11:24:24.950Z,36.42
2023-05-11T11:25:24.962Z,36.27
2023-05-11T11:26:25.026Z,36.11
2023-05-11T11:27:27.693Z,36.09
2023-05-11T11:28:25.070Z,36.03
2023-05-11T11:29:25.062Z,36.00
2023-05-11T11:30:25.056Z,35.90
2023-05-11T11:31:25.094Z,35.97
2023-05-11T11:32:25.271Z,36.07
2023-05-11T11:33:25.189Z,36.01
2023-05-11T11:34:25.208Z,35.96
2023-05-11T11:35:24.272Z,36.01
2023-05-11T11:36:24.321Z,36.02
2023-05-11T11:37:24.359Z,36.07
2023-05-11T11:38:24.428Z,36.04
2023-05-11T11:39:25.688Z,36.03
2023-05-11T11:40:25.476Z,36.11
2023-05-11T11:41:25.547Z,36.03
2023-05-11T11:42:25.613Z,36.09
2023-05-11T11:43:24.699Z,36.03
2023-05-11T11:44:24.688Z,36.06
2023-05-11T11:45:24.721Z,36.05
2023-05-11T11:46:24.842Z,36.04
2023-05-11T11:47:25.852Z,36.08
2023-05-11T11:48:26.702Z,36.10
2023-05-11T11:49:25.938Z,36.08
2023-05-11T11:50:25.955Z,36.08
2023-05-11T11:51:26.020Z,36.08
2023-05-11T11:52:25.038Z,36.07
2023-05-11T11:53:25.081Z,36.17
2023-05-11T11:54:26.176Z,36.24
2023-05-11T11:55:26.186Z,36.16
2023-05-11T11:56:26.227Z,36.15
2023-05-11T11:57:26.283Z,36.18
2023-05-11T11:58:26.356Z,36.23
2023-05-11T11:59:26.378Z,36.26
2023-05-11T12:00:26.414Z,36.24
2023-05-11T12:01:26.453Z,36.30
2023-05-11T12:02:26.597Z,36.33
2023-05-11T12:03:25.603Z,36.41
2023-05-11T12:04:25.837Z,36.45
2023-05-11T12:05:26.684Z,36.49
2023-05-11T12:06:26.954Z,36.28
2023-05-11T12:07:26.790Z,38.41
2023-05-11T12:08:26.776Z,38.25
2023-05-11T12:09:26.270Z,38.00
2023-05-11T12:10:25.771Z,39.90
2023-05-11T12:11:26.770Z,40.08
2023-05-11T12:12:26.778Z,40.68
2023-05-11T12:13:25.800Z,41.36
2023-05-11T12:14:26.875Z,41.12
2023-05-11T12:15:26.936Z,40.56
2023-05-11T12:16:26.961Z,40.40
2023-05-11T12:17:27.019Z,40.34
2023-05-11T12:18:26.094Z,40.18
2023-05-11T12:19:27.006Z,40.10
2023-05-11T12:20:27.022Z,40.07
2023-05-11T12:21:27.046Z,40.00
2023-05-11T12:22:27.056Z,39.81
2023-05-11T12:23:27.050Z,39.64
2023-05-11T12:24:26.062Z,39.46
2023-05-11T12:25:27.088Z,39.13
2023-05-11T12:26:27.128Z,39.25
2023-05-11T12:27:26.107Z,39.34
2023-05-11T12:28:27.106Z,39.32
2023-05-11T12:29:26.136Z,38.99
2023-05-11T12:30:27.153Z,39.34
2023-05-11T12:31:27.270Z,39.26
2023-05-11T12:32:27.208Z,39.31
2023-05-11T12:33:27.227Z,39.37
2023-05-11T12:34:27.235Z,39.50
2023-05-11T12:35:27.234Z,39.44
2023-05-11T12:36:27.283Z,39.27
2023-05-11T12:37:27.309Z,39.33
2023-05-11T12:38:26.372Z,39.24
2023-05-11T12:39:27.414Z,39.16
2023-05-11T12:40:26.457Z,39.26
2023-05-11T12:41:26.484Z,39.20
2023-05-11T12:42:27.517Z,39.23
2023-05-11T12:43:27.544Z,39.23
2023-05-11T12:44:27.577Z,39.21
2023-05-11T12:45:26.613Z,39.23
2023-05-11T12:46:26.802Z,39.24
2023-05-11T12:47:26.723Z,39.23
2023-05-11T12:48:27.737Z,39.24
2023-05-11T12:49:27.781Z,39.25
2023-05-11T12:50:27.847Z,39.23
2023-05-11T12:51:27.865Z,39.25
2023-05-11T12:52:27.898Z,39.26
2023-05-11T12:53:27.972Z,39.27
2023-05-11T12:54:27.001Z,39.25
2023-05-11T12:55:28.064Z,39.25
2023-05-11T12:56:28.092Z,39.25
2023-05-11T12:57:28.136Z,39.25
2023-05-11T12:58:27.192Z,39.24
2023-05-11T12:59:28.272Z,39.26
2023-05-11T13:00:28.273Z,39.28
2023-05-11T13:01:27.391Z,39.28
2023-05-11T13:02:28.535Z,39.26
2023-05-11T13:03:28.678Z,39.31
2023-05-11T13:04:27.488Z,39.30
2023-05-11T13:05:27.518Z,39.31
2023-05-11T13:06:27.556Z,39.30
2023-05-11T13:07:28.637Z,39.34
2023-05-11T13:08:28.632Z,39.34
2023-05-11T13:09:27.718Z,39.33
2023-05-11T13:10:27.717Z,39.33
2023-05-11T13:11:27.777Z,39.35
2023-05-11T13:13:27.915Z,39.34
2023-05-11T13:14:28.937Z,39.35
2023-05-11T13:15:27.965Z,39.33
2023-05-11T13:16:28.126Z,39.33
2023-05-11T13:17:28.083Z,39.30
2023-05-11T13:18:28.194Z,39.30
2023-05-11T13:19:28.186Z,39.30
2023-05-11T13:20:28.217Z,39.29
2023-05-11T13:21:28.299Z,39.26
2023-05-11T13:22:28.313Z,39.24
2023-05-11T13:23:28.379Z,39.26
2023-05-11T13:24:29.441Z,39.25
2023-05-11T13:25:29.471Z,39.20
2023-05-11T13:26:28.531Z,39.23
2023-05-11T13:27:28.618Z,39.22
2023-05-11T13:28:29.640Z,39.23
2023-05-11T13:29:29.693Z,39.25
2023-05-11T13:30:28.824Z,39.22
2023-05-11T13:31:29.962Z,39.23
2023-05-11T13:32:28.836Z,39.21
2023-05-11T13:33:29.879Z,39.25
2023-05-11T13:34:28.924Z,39.26
2023-05-11T13:35:29.949Z,39.25
2023-05-11T13:36:29.995Z,39.28
2023-05-11T13:37:30.044Z,39.27
2023-05-11T13:38:30.085Z,39.27
2023-05-11T13:39:29.144Z,39.29
2023-05-11T13:40:30.189Z,39.26
2023-05-11T13:41:30.233Z,39.30
2023-05-11T13:42:30.276Z,39.29
2023-05-11T13:43:29.347Z,39.25
2023-05-11T13:44:29.389Z,39.31
2023-05-11T13:45:30.422Z,39.30
2023-05-11T13:46:30.516Z,39.32
2023-05-11T13:47:30.567Z,39.33
2023-05-11T13:48:30.580Z,39.32
2023-05-11T13:49:29.646Z,39.32
2023-05-11T13:50:29.735Z,39.31
2023-05-11T13:51:30.747Z,39.31
2023-05-11T13:52:29.807Z,39.33
2023-05-11T13:53:30.935Z,39.33
2023-05-11T13:54:30.892Z,39.33
2023-05-11T13:55:29.976Z,39.33
2023-05-11T13:56:31.005Z,39.36
2023-05-11T13:57:31.079Z,39.36
2023-05-11T13:58:30.106Z,39.39
2023-05-11T13:59:31.160Z,39.40
2023-05-11T14:00:30.209Z,39.40
2023-05-11T14:01:30.308Z,39.41
2023-05-11T14:02:31.398Z,39.42
2023-05-11T14:03:30.441Z,39.43
2023-05-11T14:04:31.416Z,39.44
2023-05-11T14:05:31.445Z,39.46
2023-05-11T14:06:30.477Z,39.48
2023-05-11T14:07:45.648Z,39.48
2023-05-11T14:08:31.508Z,39.49
2023-05-11T14:09:31.509Z,39.50
2023-05-11T14:10:31.519Z,39.51
2023-05-11T14:11:31.485Z,39.52
2023-05-11T14:12:31.494Z,39.54
2023-05-11T14:13:31.476Z,39.56
2023-05-11T14:14:30.484Z,39.52
2023-05-11T14:15:31.468Z,39.53
2023-05-11T14:16:31.458Z,39.55
2023-05-11T14:17:33.011Z,39.55
2023-05-11T14:18:31.617Z,39.59
2023-05-11T14:19:31.540Z,39.60
2023-05-11T14:20:30.438Z,39.58
2023-05-11T14:21:31.479Z,39.60
2023-05-11T14:22:30.437Z,39.60
2023-05-11T14:23:30.421Z,39.60
2023-05-11T14:24:31.396Z,39.59
2023-05-11T14:25:31.413Z,39.59
2023-05-11T14:26:31.387Z,39.61
2023-05-11T14:27:31.385Z,39.59
2023-05-11T14:28:31.380Z,39.60
2023-05-11T14:29:31.393Z,39.60
2023-05-11T14:30:31.357Z,39.59
2023-05-11T14:31:31.425Z,39.59
2023-05-11T14:32:30.366Z,39.57
2023-05-11T14:33:31.326Z,39.55
2023-05-11T14:34:31.332Z,39.55
2023-05-11T14:35:30.339Z,39.55
2023-05-11T14:36:31.324Z,39.55
2023-05-11T14:37:31.356Z,39.55
2023-05-11T14:38:31.301Z,39.54
2023-05-11T14:39:30.288Z,39.53
2023-05-11T14:40:31.299Z,39.54
2023-05-11T14:41:30.293Z,39.54
2023-05-11T14:42:30.353Z,39.50
2023-05-11T14:43:31.387Z,39.54
2023-05-11T14:44:30.450Z,39.55
2023-05-11T14:45:30.525Z,39.54
2023-05-11T14:46:30.586Z,39.54
2023-05-11T14:47:31.669Z,39.56
2023-05-11T14:48:31.648Z,39.57
2023-05-11T14:49:31.701Z,39.58
2023-05-11T14:50:31.743Z,39.59
2023-05-11T14:51:30.843Z,39.62
2023-05-11T14:52:31.839Z,39.64
2023-05-11T14:53:31.908Z,39.64
2023-05-11T14:54:31.979Z,39.69
2023-05-11T14:55:31.997Z,39.67
2023-05-11T14:56:31.065Z,39.70
2023-05-11T14:57:31.397Z,39.71
2023-05-11T14:58:31.193Z,39.73
2023-05-11T14:59:31.199Z,39.72
2023-05-11T15:00:32.255Z,39.75
2023-05-11T15:01:32.329Z,39.76
2023-05-11T15:02:32.454Z,39.76
2023-05-11T15:03:31.402Z,39.78
2023-05-11T15:04:31.436Z,39.76
2023-05-11T15:05:32.498Z,39.75
2023-05-11T15:06:32.536Z,39.78
2023-05-11T15:07:32.578Z,39.76
2023-05-11T15:08:31.652Z,39.78
2023-05-11T15:09:32.744Z,39.74
2023-05-11T15:10:32.742Z,39.77
2023-05-11T15:11:31.801Z,39.78
2023-05-11T15:12:32.845Z,39.76
2023-05-11T15:13:32.894Z,39.77
2023-05-11T15:14:31.946Z,39.77
2023-05-11T15:15:32.999Z,39.74
2023-05-11T15:16:32.137Z,39.75
2023-05-11T15:17:32.164Z,39.72
2023-05-11T15:18:32.155Z,39.73
2023-05-11T15:19:32.187Z,39.67
2023-05-11T15:20:32.248Z,39.71
2023-05-11T15:21:32.302Z,39.69
2023-05-11T15:22:33.349Z,39.70
2023-05-11T15:23:32.391Z,39.71
2023-05-11T15:24:33.462Z,39.70
2023-05-11T15:25:32.521Z,39.72
2023-05-11T15:26:33.561Z,39.71
2023-05-11T15:27:33.600Z,39.73
2023-05-11T15:28:33.671Z,39.74
2023-05-11T15:29:33.702Z,39.75
2023-05-11T18:08:24.547Z,43.17
2023-05-11T18:09:25.520Z,41.99
2023-05-11T18:10:25.523Z,41.84
2023-05-11T18:11:25.504Z,41.73
2023-05-11T18:12:25.541Z,41.69
2023-05-11T18:13:25.672Z,41.65
2023-05-11T18:14:24.481Z,41.60
2023-05-11T18:15:25.484Z,41.61
2023-05-11T18:16:24.547Z,41.55
2023-05-11T18:17:24.539Z,41.57
2023-05-11T18:18:25.526Z,41.55
2023-05-11T18:19:24.433Z,41.53
2023-05-11T18:20:24.436Z,41.52
2023-05-11T18:21:24.447Z,41.54
2023-05-11T18:22:25.447Z,41.52
2023-05-11T18:23:25.417Z,41.51
2023-05-11T18:24:26.176Z,41.54
2023-05-11T18:25:25.457Z,41.55
2023-05-11T18:26:25.415Z,41.52
2023-05-11T18:27:25.410Z,41.51
2023-05-11T18:28:25.383Z,41.53
2023-05-11T18:29:24.403Z,41.55
2023-05-11T18:30:25.386Z,41.52
2023-05-11T18:31:25.391Z,41.52
2023-05-11T18:32:24.360Z,41.53
2023-05-11T18:33:25.360Z,41.53
2023-05-11T18:34:25.383Z,41.55
2023-05-11T18:35:24.384Z,41.53
2023-05-11T18:36:25.425Z,41.56
2023-05-11T18:37:24.450Z,41.51
2023-05-11T18:38:25.460Z,41.56
2023-05-11T18:39:25.474Z,41.57
2023-05-11T18:40:25.524Z,41.57
2023-05-11T18:41:25.508Z,41.54
2023-05-11T18:42:25.542Z,41.54
2023-05-11T18:43:24.538Z,41.56
2023-05-11T18:44:24.564Z,41.56
2023-05-11T18:45:24.568Z,41.57
2023-05-11T18:46:25.657Z,41.58
2023-05-11T18:47:25.696Z,41.58
2023-05-11T18:48:25.622Z,41.58
2023-05-11T18:49:25.649Z,41.58
2023-05-11T18:50:25.669Z,41.60
2023-05-11T18:51:25.699Z,41.60
2023-05-11T18:52:24.725Z,41.62
2023-05-11T18:53:25.713Z,41.60
2023-05-11T18:54:24.736Z,41.63
2023-05-11T18:55:25.771Z,41.61
2023-05-11T18:56:24.801Z,41.64
2023-05-11T18:57:24.817Z,41.66
2023-05-11T18:58:24.860Z,41.64
2023-05-11T18:59:25.857Z,41.66
2023-05-11T19:00:25.884Z,41.65
2023-05-11T19:01:33.127Z,41.66
2023-05-11T19:02:25.988Z,41.65
2023-05-11T19:03:25.009Z,41.67
2023-05-11T19:04:25.899Z,41.68
2023-05-11T19:05:25.869Z,41.68
2023-05-11T19:06:24.849Z,41.69
2023-05-11T19:07:25.894Z,41.71
2023-05-11T19:08:25.849Z,41.68
2023-05-11T19:09:25.857Z,41.69
2023-05-11T19:10:25.832Z,41.71
2023-05-11T19:11:25.864Z,41.69
2023-05-11T19:12:24.888Z,41.69
2023-05-11T19:13:25.855Z,41.72
2023-05-11T19:14:25.806Z,41.73
2023-05-11T19:15:25.819Z,41.71
2023-05-11T19:16:25.832Z,41.73
2023-05-11T19:17:24.841Z,41.74
2023-05-11T19:18:25.855Z,41.72
2023-05-11T19:19:25.790Z,41.77
2023-05-11T19:20:25.835Z,41.75
2023-05-11T19:21:24.794Z,41.76
2023-05-11T19:22:25.769Z,41.75
2023-05-11T19:23:25.810Z,41.76
2023-05-11T19:24:24.812Z,41.77
2023-05-11T19:25:24.850Z,41.77
2023-05-11T19:26:24.850Z,41.77
2023-05-11T19:27:25.904Z,41.80
2023-05-11T19:28:25.914Z,41.78
2023-05-11T19:29:25.919Z,41.78
2023-05-11T19:30:25.946Z,41.78
2023-05-11T19:31:26.004Z,41.81
2023-05-11T19:32:26.207Z,41.80
2023-05-11T19:33:26.007Z,41.81
2023-05-11T19:34:25.048Z,41.82
2023-05-11T19:35:26.062Z,41.84
2023-05-11T19:36:26.115Z,41.80
2023-05-11T19:37:26.121Z,41.82
2023-05-11T19:38:26.159Z,41.85
2023-05-11T19:39:26.168Z,41.85
2023-05-11T19:40:45.353Z,41.83
2023-05-11T19:41:26.181Z,41.85
2023-05-11T19:42:38.390Z,41.87
2023-05-11T19:43:26.184Z,41.87
2023-05-11T19:44:26.180Z,41.87
2023-05-11T19:45:25.147Z,41.87
2023-05-11T19:47:25.191Z,41.86
2023-05-11T19:48:26.132Z,41.86
2023-05-11T19:49:26.134Z,41.89
2023-05-11T19:50:25.351Z,41.87
2023-05-11T19:51:25.115Z,41.87
2023-05-11T19:52:25.121Z,41.86
2023-05-11T19:53:26.113Z,41.87
2023-05-11T19:54:26.093Z,41.86
2023-05-11T19:55:25.090Z,41.88
2023-05-11T19:56:26.079Z,41.86
2023-05-11T19:57:26.089Z,41.87
2023-05-11T19:58:26.073Z,41.86
2023-05-11T19:59:26.073Z,41.88
2023-05-11T20:00:25.134Z,41.87
2023-05-11T20:01:26.058Z,41.90
2023-05-11T20:02:26.133Z,41.90
2023-05-11T20:03:28.617Z,41.91
2023-05-11T20:04:26.022Z,41.92
2023-05-11T20:05:26.022Z,41.93
2023-05-11T20:06:25.011Z,41.93
2023-05-11T20:07:26.013Z,41.92
2023-05-11T20:08:26.001Z,41.92
2023-05-11T20:09:25.993Z,41.93
2023-05-11T20:10:25.992Z,41.94
2023-05-11T20:11:25.977Z,41.95
2023-05-11T20:12:25.991Z,41.92
2023-05-11T20:13:25.988Z,41.95
2023-05-11T20:14:24.951Z,41.94
2023-05-11T20:15:25.976Z,41.93
2023-05-11T20:16:25.006Z,41.95
2023-05-11T20:17:26.013Z,41.97
2023-05-11T20:18:25.966Z,41.96
2023-05-11T20:19:25.924Z,41.94
2023-05-11T20:20:24.908Z,41.97
2023-05-11T20:21:25.915Z,42.00
2023-05-11T20:22:24.916Z,41.99
2023-05-11T20:23:25.910Z,41.99
2023-05-11T20:24:25.883Z,42.01
2023-05-11T20:25:25.891Z,42.02
2023-05-11T20:26:24.876Z,42.00
2023-05-11T20:27:24.874Z,42.00
2023-05-11T20:28:24.862Z,42.03
2023-05-11T20:29:25.849Z,42.02
2023-05-11T20:30:25.860Z,42.02
2023-05-11T20:31:25.894Z,42.02
2023-05-11T20:32:25.899Z,42.03
2023-05-11T20:34:24.894Z,42.04
2023-05-11T20:35:24.827Z,42.04
2023-05-11T20:36:25.829Z,42.05
2023-05-11T20:37:24.812Z,42.06